Time;durP1;ratioP1;P1;durP2;ratioP2;P2;SDS_P1;SDS_P2;PMS_P1;PMS_P2;Temp;Humidity;BMP_temperature;BMP_pressure;BME280_temperature;BME280_humidity;BME280_pressure;Samples;Min_cycle;Max_cycle;Signal;HPM_P1;HPM_P2
2022/01/17 00:00:10;;;;;;;17.30;3.00;;;5.80;99.90;;;;;;5087975;28;20035;-68
2022/01/17 00:02:37;;;;;;;15.23;3.75;;;5.70;99.90;;;;;;5087444;28;20043;-68
2022/01/17 00:05:07;;;;;;;18.65;3.28;;;6.50;99.90;;;;;;5101135;28;20055;-68
2022/01/17 00:07:33;;;;;;;19.00;2.40;;;5.60;99.90;;;;;;5085560;28;20044;-68
2022/01/17 00:09:59;;;;;;;20.38;2.75;;;5.50;99.90;;;;;;5090558;28;20028;-68
2022/01/17 00:12:26;;;;;;;16.90;2.63;;;6.10;99.90;;;;;;5083601;28;20032;-68
2022/01/17 00:14:55;;;;;;;10.93;2.75;;;5.40;99.90;;;;;;5078473;28;20047;-68
2022/01/17 00:19:52;;;;;;;12.07;2.78;;;5.40;99.90;;;;;;5069446;28;20055;-68
2022/01/17 00:22:20;;;;;;;16.65;2.75;;;5.30;99.90;;;;;;5078974;28;20115;-68
2022/01/17 00:24:46;;;;;;;15.27;2.63;;;5.30;99.90;;;;;;5065013;28;20511;-68
2022/01/17 00:27:13;;;;;;;11.82;2.50;;;5.20;99.90;;;;;;5080063;28;20051;-68
2022/01/17 00:29:39;;;;;;;15.45;2.58;;;5.30;99.90;;;;;;5082447;28;20926;-68
2022/01/17 00:32:05;;;;;;;13.77;2.58;;;5.20;99.90;;;;;;5090434;28;20036;-68
2022/01/17 00:34:30;;;;;;;14.82;3.70;;;5.20;99.90;;;;;;5085284;28;20063;-68
2022/01/17 00:36:56;;;;;;;15.50;2.70;;;5.30;99.90;;;;;;5084700;28;20695;-68
2022/01/17 00:39:22;;;;;;;14.90;4.03;;;5.30;99.90;;;;;;5082896;28;20044;-68
2022/01/17 00:41:48;;;;;;;17.75;2.70;;;5.30;99.90;;;;;;5088642;28;20032;-68
2022/01/17 00:44:21;;;;;;;14.38;3.05;;;6.30;99.90;;;;;;5055438;28;20040;-68
2022/01/17 00:46:47;;;;;;;19.25;3.25;;;5.20;99.90;;;;;;5082441;28;20071;-68
2022/01/17 00:49:12;;;;;;;18.52;3.67;;;5.20;99.90;;;;;;5076891;28;20574;-68
2022/01/17 00:51:38;;;;;;;15.55;3.58;;;5.20;99.90;;;;;;5077076;28;20040;-68
2022/01/17 00:54:04;;;;;;;11.70;2.75;;;5.20;99.90;;;;;;5082918;28;20361;-68
2022/01/17 00:56:30;;;;;;;12.75;2.67;;;5.20;99.90;;;;;;5065477;28;20127;-68
2022/01/17 00:58:55;;;;;;;17.27;3.25;;;5.90;99.90;;;;;;5067149;28;20605;-68
2022/01/17 01:01:21;;;;;;;17.63;2.95;;;5.30;99.90;;;;;;5085046;28;20032;-68
2022/01/17 01:03:47;;;;;;;15.23;3.08;;;5.30;99.90;;;;;;5054667;28;20131;-68
2022/01/17 01:06:13;;;;;;;15.23;3.08;;;5.40;99.90;;;;;;5042146;28;20140;-68
2022/01/17 01:08:39;;;;;;;16.55;2.75;;;5.40;99.90;;;;;;5047965;28;20048;-68
2022/01/17 01:11:05;;;;;;;15.57;2.75;;;5.40;99.90;;;;;;5062341;28;20494;-68
2022/01/17 01:13:31;;;;;;;15.68;3.97;;;5.40;99.90;;;;;;5062206;28;20036;-68
2022/01/17 01:29:19;;;;;;;14.82;2.83;;;5.40;99.90;;;;;;5064747;28;20082;-68
2022/01/17 01:31:56;;;;;;;12.05;3.15;;;5.30;99.90;;;;;;5067270;28;20071;-68
2022/01/17 01:34:31;;;;;;;16.13;2.47;;;5.30;99.90;;;;;;5046961;28;20036;-68
2022/01/17 01:36:57;;;;;;;11.43;2.83;;;5.40;99.90;;;;;;5047641;28;20487;-68
2022/01/17 01:39:24;;;;;;;14.30;2.67;;;5.40;99.90;;;;;;5046471;28;20028;-68
2022/01/17 01:41:51;;;;;;;16.88;2.38;;;5.40;99.90;;;;;;5062956;28;20083;-68
2022/01/17 01:44:23;;;;;;;15.90;2.47;;;5.40;99.90;;;;;;5043651;28;20134;-68
2022/01/17 01:46:50;;;;;;;14.85;3.03;;;5.40;99.90;;;;;;5065503;28;20040;-68
2022/01/17 01:49:17;;;;;;;13.75;2.03;;;5.70;99.90;;;;;;5050489;28;20040;-68
2022/01/17 01:51:44;;;;;;;18.95;3.33;;;5.40;99.90;;;;;;5056515;28;20452;-68
2022/01/17 01:54:10;;;;;;;15.35;3.80;;;5.40;99.90;;;;;;5066610;28;20114;-68
2022/01/17 01:56:38;;;;;;;11.73;2.50;;;5.40;99.90;;;;;;5046187;28;20312;-68
2022/01/17 01:59:04;;;;;;;15.80;3.20;;;5.40;99.90;;;;;;5054734;28;20024;-68
2022/01/17 02:01:30;;;;;;;17.88;2.92;;;5.50;99.90;;;;;;5067373;28;20028;-68
2022/01/17 02:03:56;;;;;;;15.43;2.97;;;5.40;99.90;;;;;;5057546;28;20117;-68
2022/01/17 02:06:22;;;;;;;14.07;3.72;;;5.30;99.90;;;;;;5080961;28;20056;-68
2022/01/17 02:08:47;;;;;;;19.42;2.85;;;5.30;99.90;;;;;;5080962;28;20041;-68
2022/01/17 02:11:13;;;;;;;13.38;2.92;;;5.20;99.90;;;;;;5082522;28;20033;-68
2022/01/17 02:13:39;;;;;;;16.77;2.88;;;5.90;99.90;;;;;;5061736;28;20048;-68
2022/01/17 02:16:13;;;;;;;13.50;2.58;;;5.20;99.90;;;;;;5081944;28;20037;-68
2022/01/17 02:18:41;;;;;;;11.18;2.47;;;5.30;99.90;;;;;;5078717;28;20051;-68
2022/01/17 02:21:17;;;;;;;17.13;3.05;;;6.10;99.90;;;;;;5084736;28;20074;-68
2022/01/17 02:23:48;;;;;;;18.25;2.95;;;5.20;99.90;;;;;;5086628;28;20050;-68
2022/01/17 02:26:16;;;;;;;19.98;3.80;;;5.20;99.90;;;;;;5085004;28;20127;-68
2022/01/17 02:28:47;;;;;;;19.60;2.80;;;5.20;99.90;;;;;;5080129;28;20519;-68
2022/01/17 02:31:13;;;;;;;21.38;4.38;;;5.10;99.90;;;;;;5087811;28;20036;-68
2022/01/17 02:33:39;;;;;;;13.20;2.15;;;5.10;99.90;;;;;;5077597;28;20043;-69
2022/01/17 02:36:06;;;;;;;17.17;3.50;;;5.10;99.90;;;;;;5068311;28;20040;-69
2022/01/17 02:38:31;;;;;;;17.95;3.30;;;5.10;99.90;;;;;;5083115;28;20040;-69
2022/01/17 02:40:57;;;;;;;14.45;3.83;;;5.00;99.90;;;;;;5082410;28;20031;-68
2022/01/17 02:43:24;;;;;;;16.02;3.03;;;5.80;99.90;;;;;;5069313;28;20039;-68
2022/01/17 02:48:17;;;;;;;14.05;3.35;;;5.00;99.90;;;;;;5081458;28;20126;-68
2022/01/17 02:50:42;;;;;;;12.93;2.85;;;4.90;99.90;;;;;;5059255;28;20197;-68
2022/01/17 02:53:09;;;;;;;13.13;2.30;;;5.00;99.90;;;;;;5084870;28;20069;-68
2022/01/17 02:55:35;;;;;;;21.10;3.38;;;5.00;99.90;;;;;;5065826;28;20044;-68
2022/01/17 02:58:01;;;;;;;18.83;2.92;;;5.00;99.90;;;;;;5061827;28;20432;-68
2022/01/17 03:00:27;;;;;;;9.75;3.03;;;4.90;99.90;;;;;;5085230;28;20047;-68
2022/01/17 03:02:53;;;;;;;18.70;3.83;;;4.90;99.90;;;;;;5083260;28;20038;-68
2022/01/17 03:05:20;;;;;;;16.10;3.30;;;4.90;99.90;;;;;;5070564;28;20051;-68
2022/01/17 03:07:47;;;;;;;13.30;2.55;;;4.90;99.90;;;;;;5062638;28;20564;-68
2022/01/17 03:10:39;;;;;;;22.52;4.72;;;4.90;99.90;;;;;;5087224;28;20462;-68
2022/01/17 03:13:12;;;;;;;14.80;2.97;;;4.90;99.90;;;;;;5072742;28;20483;-68
2022/01/17 03:15:38;;;;;;;16.23;4.28;;;4.90;99.90;;;;;;5070589;28;20050;-68
2022/01/17 03:18:05;;;;;;;18.67;3.38;;;4.90;99.90;;;;;;5082363;28;20515;-68
2022/01/17 03:20:31;;;;;;;19.15;2.90;;;5.00;99.90;;;;;;5068113;28;20035;-68
2022/01/17 03:22:57;;;;;;;17.15;4.50;;;5.00;99.90;;;;;;5073535;28;20043;-68
2022/01/17 03:25:23;;;;;;;14.95;3.20;;;5.00;99.90;;;;;;5084274;28;20043;-68
2022/01/17 03:27:49;;;;;;;12.40;2.53;;;5.00;99.90;;;;;;5077123;28;20439;-69
2022/01/17 03:30:15;;;;;;;19.33;2.95;;;5.40;99.90;;;;;;5058262;28;20031;-69
2022/01/17 03:32:41;;;;;;;10.38;2.38;;;5.10;99.90;;;;;;5065157;28;20563;-69
2022/01/17 03:35:07;;;;;;;17.45;3.42;;;5.10;99.90;;;;;;5078546;28;20046;-69
2022/01/17 03:37:33;;;;;;;18.90;3.38;;;5.10;99.90;;;;;;5085826;28;20078;-69
2022/01/17 03:39:59;;;;;;;15.07;3.13;;;5.10;99.90;;;;;;5081259;28;20144;-69
2022/01/17 03:42:24;;;;;;;12.48;2.30;;;5.10;99.90;;;;;;5077858;28;20078;-68
2022/01/17 03:44:51;;;;;;;14.40;3.00;;;5.20;99.90;;;;;;5088323;28;20126;-68
2022/01/17 03:47:17;;;;;;;12.27;2.70;;;5.20;99.90;;;;;;5086153;28;20102;-68
2022/01/17 03:49:43;;;;;;;10.57;2.90;;;5.20;99.90;;;;;;5090834;28;20500;-68
2022/01/17 03:52:09;;;;;;;17.63;2.83;;;5.20;99.90;;;;;;5068342;28;20119;-68
2022/01/17 03:54:35;;;;;;;18.52;2.67;;;5.60;99.90;;;;;;5067902;28;20031;-68
2022/01/17 03:57:01;;;;;;;21.08;2.33;;;5.20;99.90;;;;;;5070775;28;20747;-68
2022/01/17 03:59:27;;;;;;;13.18;2.58;;;5.20;99.90;;;;;;5082680;28;20357;-68
2022/01/17 04:01:53;;;;;;;12.45;2.70;;;5.20;99.90;;;;;;5081913;28;20036;-68
2022/01/17 04:04:19;;;;;;;11.95;2.63;;;5.20;99.90;;;;;;5099361;28;20055;-68
2022/01/17 04:06:45;;;;;;;17.15;2.28;;;5.30;99.90;;;;;;5088464;28;20038;-68
2022/01/17 04:09:11;;;;;;;17.08;2.45;;;5.30;99.90;;;;;;5083361;28;20040;-68
2022/01/17 04:11:38;;;;;;;19.05;3.03;;;6.10;99.90;;;;;;5081083;28;20043;-68
2022/01/17 04:14:05;;;;;;;16.75;2.17;;;5.30;99.90;;;;;;5073319;28;20039;-69
2022/01/17 04:16:32;;;;;;;12.48;4.00;;;5.30;99.90;;;;;;5086002;28;20048;-69
2022/01/17 04:18:58;;;;;;;13.85;2.50;;;5.30;99.90;;;;;;5081945;28;20044;-68
2022/01/17 04:21:30;;;;;;;22.38;3.80;;;5.30;99.90;;;;;;5085282;28;20035;-68
2022/01/17 04:23:56;;;;;;;14.88;2.40;;;5.20;99.90;;;;;;5056685;28;20071;-68
2022/01/17 04:26:21;;;;;;;14.65;2.45;;;5.30;99.90;;;;;;5107672;28;20031;-68
2022/01/17 04:28:47;;;;;;;13.15;2.33;;;5.90;99.90;;;;;;5079203;28;20040;-68
2022/01/17 04:31:13;;;;;;;14.95;3.30;;;5.20;99.90;;;;;;5085637;28;20097;-68
2022/01/17 04:33:38;;;;;;;12.55;3.13;;;5.20;99.90;;;;;;5077792;28;20096;-68
2022/01/17 04:36:07;;;;;;;17.27;2.40;;;5.20;99.90;;;;;;5086287;28;20067;-68
2022/01/17 04:38:33;;;;;;;10.60;2.08;;;5.20;99.90;;;;;;5067053;28;20089;-68
2022/01/17 04:41:04;;;;;;;19.33;3.40;;;5.20;99.90;;;;;;5083288;28;20063;-68
2022/01/17 04:46:04;;;;;;;11.30;2.80;;;5.30;99.90;;;;;;5096654;28;20427;-68
2022/01/17 04:48:30;;;;;;;10.60;2.28;;;5.30;99.90;;;;;;5083660;28;20032;-68
2022/01/17 04:50:58;;;;;;;12.63;2.00;;;5.30;99.90;;;;;;5085780;28;20040;-69
2022/01/17 04:53:27;;;;;;;9.82;3.67;;;5.40;99.90;;;;;;5068573;28;20039;-69
2022/01/17 04:55:53;;;;;;;13.00;1.90;;;5.40;99.90;;;;;;5066477;28;20044;-68
2022/01/17 04:58:19;;;;;;;9.88;2.22;;;5.40;99.90;;;;;;5076360;28;20093;-68
2022/01/17 05:00:49;;;;;;;10.18;1.67;;;6.00;99.90;;;;;;5087236;28;20050;-68
2022/01/17 05:03:23;;;;;;;11.05;2.33;;;5.50;99.90;;;;;;5083520;28;20071;-68
2022/01/17 05:05:50;;;;;;;12.52;3.33;;;6.00;99.90;;;;;;5086881;28;20051;-68
2022/01/17 05:08:16;;;;;;;19.95;3.80;;;5.60;99.90;;;;;;5089810;28;20036;-68
2022/01/17 05:10:46;;;;;;;9.90;3.28;;;6.20;99.90;;;;;;5085568;28;20060;-69
2022/01/17 05:13:17;;;;;;;14.88;2.67;;;5.60;99.90;;;;;;5076602;28;20040;-69
2022/01/17 05:15:51;;;;;;;12.35;2.35;;;5.60;99.90;;;;;;5084885;28;20035;-68
2022/01/17 05:21:10;;;;;;;9.18;2.63;;;5.70;99.90;;;;;;5069392;28;20491;-68
2022/01/17 05:23:36;;;;;;;10.20;2.30;;;5.70;99.90;;;;;;5087182;28;20048;-68
2022/01/17 05:26:02;;;;;;;16.00;2.50;;;5.80;99.90;;;;;;5087190;28;20039;-68
2022/01/17 05:28:27;;;;;;;13.60;2.60;;;6.50;99.90;;;;;;5068376;28;20415;-68
2022/01/17 05:30:53;;;;;;;14.80;2.80;;;5.80;99.90;;;;;;5071085;28;20035;-68
2022/01/17 05:33:19;;;;;;;15.27;3.67;;;5.90;99.90;;;;;;5089012;28;20039;-68
2022/01/17 05:35:45;;;;;;;12.57;3.05;;;5.90;99.90;;;;;;5088166;28;20040;-68
2022/01/17 05:38:10;;;;;;;16.25;3.97;;;6.20;99.90;;;;;;5086294;28;20039;-68
2022/01/17 05:40:36;;;;;;;16.63;3.13;;;5.90;99.90;;;;;;5088370;28;20054;-68
2022/01/17 05:43:02;;;;;;;9.93;2.55;;;5.90;99.90;;;;;;5056688;28;20039;-68
2022/01/17 05:45:27;;;;;;;16.70;3.38;;;5.90;99.90;;;;;;5088120;28;20491;-69
2022/01/17 05:47:53;;;;;;;15.38;2.60;;;6.70;99.90;;;;;;5088316;28;20043;-69
2022/01/17 05:50:19;;;;;;;14.88;3.35;;;6.30;99.90;;;;;;5058917;28;20150;-69
2022/01/17 05:52:45;;;;;;;15.10;2.90;;;6.00;99.90;;;;;;5081319;28;20515;-69
2022/01/17 05:55:13;;;;;;;10.07;3.40;;;6.60;99.90;;;;;;5070041;28;20059;-69
2022/01/17 05:57:40;;;;;;;23.67;3.33;;;6.30;99.90;;;;;;5083682;28;20446;-69
2022/01/17 06:00:09;;;;;;;16.10;2.83;;;6.10;99.90;;;;;;5082731;28;20050;-69
2022/01/17 06:02:35;;;;;;;14.57;2.80;;;6.10;99.90;;;;;;5081971;28;20048;-68
2022/01/17 06:05:01;;;;;;;19.88;3.78;;;6.10;99.90;;;;;;5086742;28;20530;-69
2022/01/17 06:07:27;;;;;;;17.38;3.28;;;6.10;99.90;;;;;;5069212;28;20051;-69
2022/01/17 06:09:52;;;;;;;12.18;3.83;;;6.10;99.90;;;;;;5065622;28;20027;-69
2022/01/17 06:12:18;;;;;;;12.65;3.15;;;6.10;99.90;;;;;;5088232;28;20434;-69
2022/01/17 06:14:44;;;;;;;14.23;3.45;;;5.80;99.90;;;;;;5083547;28;20046;-69
2022/01/17 06:17:10;;;;;;;16.15;3.45;;;6.30;99.90;;;;;;5100702;28;20093;-69
2022/01/17 06:19:35;;;;;;;11.75;3.30;;;6.10;99.90;;;;;;5084063;28;20478;-69
2022/01/17 06:22:03;;;;;;;15.32;2.95;;;6.10;99.90;;;;;;5063012;28;20104;-69
2022/01/17 06:24:29;;;;;;;18.38;3.83;;;6.20;99.90;;;;;;5071043;28;20078;-69
2022/01/17 06:26:55;;;;;;;16.00;3.83;;;6.20;99.90;;;;;;5078778;28;20068;-68
2022/01/17 06:29:21;;;;;;;13.77;3.20;;;6.20;99.90;;;;;;5052547;28;20507;-68
2022/01/17 06:31:46;;;;;;;19.52;3.67;;;6.20;99.90;;;;;;5069967;28;20383;-68
2022/01/17 06:34:13;;;;;;;18.08;5.10;;;6.20;99.90;;;;;;5081212;28;20054;-69
2022/01/17 06:36:41;;;;;;;19.98;3.47;;;6.20;99.90;;;;;;5068521;28;20361;-68
2022/01/17 06:39:07;;;;;;;25.42;4.05;;;6.20;99.90;;;;;;5081228;28;20051;-68
2022/01/17 06:41:34;;;;;;;21.33;4.15;;;6.20;99.90;;;;;;5087703;28;20046;-69
2022/01/17 06:43:59;;;;;;;19.10;4.03;;;6.20;99.90;;;;;;5088388;28;20065;-68
2022/01/17 06:46:25;;;;;;;15.43;3.60;;;6.20;99.90;;;;;;5089982;28;20077;-68
2022/01/17 06:48:51;;;;;;;16.55;4.15;;;6.60;99.90;;;;;;5085038;28;20039;-68
2022/01/17 06:51:18;;;;;;;18.77;4.03;;;6.20;99.90;;;;;;5086827;28;20523;-68
2022/01/17 06:53:44;;;;;;;15.65;4.07;;;6.20;99.90;;;;;;5087572;28;20043;-69
2022/01/17 06:56:10;;;;;;;9.23;3.03;;;6.20;99.90;;;;;;5083416;28;20032;-68
2022/01/17 06:58:36;;;;;;;19.20;4.38;;;6.10;99.90;;;;;;5087635;28;20427;-68
2022/01/17 07:01:04;;;;;;;16.65;4.15;;;6.10;99.90;;;;;;5077992;28;20040;-68
2022/01/17 07:03:30;;;;;;;24.08;5.90;;;6.10;99.90;;;;;;5068553;28;20111;-68
2022/01/17 07:05:55;;;;;;;14.00;4.03;;;6.40;99.90;;;;;;5065407;28;20055;-68
2022/01/17 07:08:21;;;;;;;19.13;4.32;;;6.20;99.90;;;;;;5083555;28;20027;-68
2022/01/17 07:10:47;;;;;;;26.10;5.07;;;6.10;99.90;;;;;;5091326;28;20044;-68
2022/01/17 07:13:12;;;;;;;26.05;5.72;;;6.10;99.90;;;;;;5088147;28;20093;-68
2022/01/17 07:15:38;;;;;;;20.27;5.20;;;6.10;99.90;;;;;;5077688;28;20072;-68
2022/01/17 07:18:06;;;;;;;24.85;5.80;;;6.10;99.90;;;;;;5061799;28;20035;-69
2022/01/17 07:20:32;;;;;;;21.30;5.38;;;6.10;99.90;;;;;;5074761;28;20125;-69
2022/01/17 07:22:58;;;;;;;17.50;4.53;;;6.10;99.90;;;;;;5083841;28;20036;-69
2022/01/17 07:25:24;;;;;;;15.70;2.97;;;6.10;99.90;;;;;;5052086;28;20144;-68
2022/01/17 07:27:49;;;;;;;27.52;5.05;;;6.10;99.90;;;;;;5082074;28;20047;-68
2022/01/17 07:30:15;;;;;;;26.58;5.40;;;6.20;99.90;;;;;;5087263;28;20074;-69
2022/01/17 07:32:41;;;;;;;17.58;4.85;;;6.20;99.90;;;;;;5080986;28;20067;-69
2022/01/17 07:35:08;;;;;;;17.70;3.97;;;6.20;99.90;;;;;;5059325;28;20111;-68
2022/01/17 07:37:34;;;;;;;29.00;5.43;;;6.20;99.90;;;;;;5067332;28;20572;-68
2022/01/17 07:40:00;;;;;;;28.02;5.43;;;6.30;99.90;;;;;;5085131;28;20396;-68
2022/01/17 07:42:26;;;;;;;21.38;5.20;;;6.30;99.90;;;;;;5064193;28;20040;-68
2022/01/17 07:44:56;;;;;;;25.10;4.80;;;6.30;99.90;;;;;;5098250;28;20363;-69
2022/01/17 07:47:45;;;;;;;17.60;4.78;;;6.30;99.90;;;;;;5077488;28;20043;-69
2022/01/17 07:50:17;;;;;;;22.17;4.25;;;6.30;99.90;;;;;;5078387;28;20301;-69
2022/01/17 07:52:43;;;;;;;26.58;5.93;;;6.30;99.90;;;;;;5078858;28;20035;-68
2022/01/17 07:55:10;;;;;;;24.17;5.20;;;6.70;99.90;;;;;;5074605;28;20042;-69
2022/01/17 07:57:38;;;;;;;23.70;4.65;;;6.40;99.90;;;;;;5065209;28;20047;-69
2022/01/17 08:00:09;;;;;;;24.83;4.50;;;6.40;99.90;;;;;;5084786;28;20050;-69
2022/01/17 08:02:35;;;;;;;26.73;4.32;;;6.40;99.90;;;;;;5077622;28;20079;-69
2022/01/17 08:05:02;;;;;;;25.45;4.38;;;6.40;99.90;;;;;;5081566;28;20094;-69
2022/01/17 08:07:28;;;;;;;29.65;4.68;;;6.80;99.90;;;;;;5087637;28;20768;-71
2022/01/17 08:09:54;;;;;;;22.13;4.47;;;6.50;99.90;;;;;;5082787;28;20526;-70
2022/01/17 08:12:19;;;;;;;25.65;4.93;;;6.50;99.90;;;;;;5069138;28;20040;-70
2022/01/17 08:14:45;;;;;;;23.55;4.57;;;6.50;99.90;;;;;;5067665;28;20555;-71
2022/01/17 08:17:11;;;;;;;23.65;4.47;;;6.50;99.90;;;;;;5066548;28;20050;-69
2022/01/17 08:19:37;;;;;;;34.00;7.22;;;6.50;99.90;;;;;;5079365;28;20119;-69
2022/01/17 08:22:06;;;;;;;28.40;6.32;;;6.50;99.90;;;;;;5063400;28;20502;-69
2022/01/17 08:24:34;;;;;;;29.10;5.43;;;6.60;99.90;;;;;;5067387;28;20194;-69
2022/01/17 08:27:01;;;;;;;25.38;4.40;;;6.60;99.90;;;;;;5080614;28;20089;-69
2022/01/17 08:29:28;;;;;;;28.98;6.68;;;6.60;99.90;;;;;;5069161;28;20332;-69
2022/01/17 08:31:55;;;;;;;23.20;4.75;;;6.60;99.90;;;;;;5072103;28;20031;-69
2022/01/17 08:34:21;;;;;;;20.65;4.20;;;6.60;99.90;;;;;;5069493;28;20612;-69
2022/01/17 08:36:47;;;;;;;26.10;5.43;;;6.60;99.90;;;;;;5086811;28;20130;-69
2022/01/17 08:39:14;;;;;;;24.73;5.32;;;6.60;99.90;;;;;;5083464;28;20073;-69
2022/01/17 08:41:42;;;;;;;29.83;4.63;;;6.60;99.90;;;;;;5089277;28;20043;-69
2022/01/17 08:44:13;;;;;;;17.30;4.38;;;6.60;99.90;;;;;;5088897;28;20047;-69
2022/01/17 08:46:39;;;;;;;32.70;5.85;;;6.70;99.90;;;;;;5071476;28;20051;-69
2022/01/17 08:49:05;;;;;;;26.83;5.88;;;7.10;99.90;;;;;;5070725;28;20027;-69
2022/01/17 08:51:31;;;;;;;31.27;5.40;;;6.70;99.90;;;;;;5055234;28;20036;-69
2022/01/17 08:53:57;;;;;;;33.10;5.55;;;6.70;99.90;;;;;;5086531;28;20445;-69
2022/01/17 08:56:23;;;;;;;25.80;5.57;;;7.00;99.90;;;;;;5088624;28;20088;-69
2022/01/17 08:58:49;;;;;;;31.35;5.82;;;6.80;99.90;;;;;;5058606;28;20035;-69
2022/01/17 09:01:15;;;;;;;29.48;5.30;;;7.00;99.90;;;;;;5090203;28;20445;-69
2022/01/17 09:03:41;;;;;;;35.88;6.35;;;6.80;99.90;;;;;;5088207;28;20102;-69
2022/01/17 09:06:07;;;;;;;25.08;4.93;;;6.80;99.90;;;;;;5088442;28;20324;-69
2022/01/17 09:08:33;;;;;;;23.90;5.03;;;6.80;99.90;;;;;;5092867;28;20452;-69
2022/01/17 09:10:58;;;;;;;27.70;5.30;;;6.90;99.90;;;;;;5076537;28;20039;-69
2022/01/17 09:13:25;;;;;;;26.13;5.18;;;7.20;99.90;;;;;;5074711;28;20032;-69
2022/01/17 09:15:52;;;;;;;29.95;5.00;;;6.90;99.90;;;;;;5090215;28;20563;-69
2022/01/17 09:18:20;;;;;;;26.92;6.45;;;7.00;99.90;;;;;;5087879;28;20067;-69
2022/01/17 09:20:46;;;;;;;25.95;4.45;;;7.10;99.90;;;;;;5087588;28;20043;-69
2022/01/17 09:23:13;;;;;;;29.08;5.43;;;7.10;99.90;;;;;;5085852;28;20492;-69
2022/01/17 09:25:39;;;;;;;25.60;5.30;;;7.90;99.90;;;;;;5081625;28;20259;-69
2022/01/17 09:28:05;;;;;;;22.52;6.15;;;7.30;99.90;;;;;;5088927;28;20039;-69
2022/01/17 09:30:31;;;;;;;28.60;5.43;;;7.40;99.90;;;;;;5071083;28;20035;-69
2022/01/17 09:32:57;;;;;;;26.15;5.57;;;7.50;99.90;;;;;;5069084;28;20032;-69
2022/01/17 09:35:23;;;;;;;24.88;4.30;;;7.50;99.90;;;;;;5071659;28;20400;-69
2022/01/17 09:37:50;;;;;;;32.97;5.10;;;7.70;99.90;;;;;;5074028;28;20035;-69
2022/01/17 09:40:18;;;;;;;23.60;4.97;;;7.70;99.90;;;;;;5089839;28;20047;-69
2022/01/17 09:42:44;;;;;;;30.67;5.32;;;8.70;99.90;;;;;;5091482;28;20058;-69
2022/01/17 09:45:13;;;;;;;34.25;6.75;;;8.00;99.90;;;;;;5088210;28;20039;-70
2022/01/17 09:47:40;;;;;;;30.08;5.10;;;8.10;99.90;;;;;;5101088;28;20510;-69
2022/01/17 09:50:12;;;;;;;31.55;5.82;;;8.10;99.90;;;;;;5085500;28;20047;-69
2022/01/17 09:52:50;;;;;;;28.92;5.20;;;8.20;99.90;;;;;;5100424;28;20071;-69
2022/01/17 09:55:27;;;;;;;31.98;5.72;;;8.20;99.90;;;;;;5105606;28;20072;-69
2022/01/17 09:58:06;;;;;;;29.40;5.70;;;8.20;99.90;;;;;;5090824;28;20083;-69
2022/01/17 10:00:38;;;;;;;28.92;5.45;;;8.30;99.90;;;;;;5092286;28;20287;-69
2022/01/17 10:03:07;;;;;;;33.03;6.72;;;8.30;99.90;;;;;;5072503;28;20044;-69
2022/01/17 10:05:35;;;;;;;34.33;6.15;;;8.40;99.90;;;;;;5068390;28;20044;-69
2022/01/17 10:08:07;;;;;;;42.95;7.50;;;8.80;99.90;;;;;;5087157;28;20099;-69
2022/01/17 10:10:38;;;;;;;35.75;6.15;;;8.50;99.90;;;;;;5072009;28;20105;-69
2022/01/17 10:13:10;;;;;;;35.47;6.32;;;9.10;99.90;;;;;;5078524;28;20040;-69
2022/01/17 10:15:45;;;;;;;34.13;5.80;;;8.50;99.90;;;;;;5086819;28;20418;-69
2022/01/17 10:18:26;;;;;;;39.40;7.13;;;8.50;99.90;;;;;;5088813;28;20048;-69
2022/01/17 10:20:57;;;;;;;29.33;7.30;;;8.60;99.90;;;;;;5088086;28;20092;-69
2022/01/17 10:26:17;;;;;;;25.65;5.45;;;8.70;99.90;;;;;;5078863;28;20752;-69
2022/01/17 10:29:07;;;;;;;29.48;4.78;;;8.70;99.90;;;;;;5064301;28;20135;-69
2022/01/17 10:36:57;;;;;;;32.88;6.50;;;8.80;99.90;;;;;;5083727;28;20035;-69
2022/01/17 10:39:23;;;;;;;45.55;9.23;;;8.90;99.90;;;;;;5089462;28;20043;-69
2022/01/17 10:41:49;;;;;;;34.63;6.00;;;8.90;99.90;;;;;;5073894;28;20036;-69
2022/01/17 10:44:35;;;;;;;29.48;6.90;;;8.90;99.90;;;;;;5071571;28;20046;-69
2022/01/17 10:47:24;;;;;;;37.42;7.00;;;8.80;99.90;;;;;;5088123;28;20051;-69
2022/01/17 10:49:56;;;;;;;29.60;6.00;;;8.90;99.90;;;;;;5073801;28;20118;-69
2022/01/17 10:52:33;;;;;;;38.58;8.82;;;8.90;99.90;;;;;;5087472;28;20415;-69
2022/01/17 10:55:31;;;;;;;35.28;6.50;;;8.90;99.90;;;;;;5086444;28;20036;-69
2022/01/17 10:58:02;;;;;;;37.72;6.53;;;8.90;99.90;;;;;;5072635;28;20051;-69
2022/01/17 11:00:40;;;;;;;25.95;6.82;;;9.00;99.90;;;;;;5061168;28;20044;-69
2022/01/17 11:03:11;;;;;;;35.00;7.63;;;9.00;99.90;;;;;;5089353;28;20093;-69
2022/01/17 11:05:39;;;;;;;32.30;7.47;;;9.00;99.90;;;;;;5078844;28;20476;-69
2022/01/17 11:08:05;;;;;;;37.03;6.25;;;9.10;99.90;;;;;;5080336;28;20494;-69
2022/01/17 11:10:36;;;;;;;37.25;7.93;;;9.00;99.90;;;;;;5054188;28;20040;-69
2022/01/17 11:13:06;;;;;;;38.90;7.18;;;9.00;99.90;;;;;;5077595;28;20832;-69
2022/01/17 11:15:33;;;;;;;42.00;8.10;;;9.00;99.90;;;;;;5068792;28;20048;-69
2022/01/17 11:18:22;;;;;;;31.02;5.75;;;9.00;99.90;;;;;;5079356;28;20408;-69
2022/01/17 11:20:58;;;;;;;38.30;7.57;;;9.10;99.90;;;;;;5074754;28;20044;-69
2022/01/17 11:23:24;;;;;;;31.30;6.95;;;9.10;99.90;;;;;;5084279;28;20085;-69
2022/01/17 11:25:54;;;;;;;31.33;6.88;;;9.80;99.90;;;;;;5065748;28;20085;-69
2022/01/17 11:28:26;;;;;;;33.67;6.80;;;9.20;99.90;;;;;;5068303;28;20035;-69
2022/01/17 11:30:54;;;;;;;37.88;7.60;;;9.20;99.90;;;;;;5076614;28;20040;-69
2022/01/17 11:33:20;;;;;;;39.13;8.27;;;9.20;99.90;;;;;;5069216;28;20522;-69
2022/01/17 11:35:51;;;;;;;35.78;7.00;;;9.20;99.90;;;;;;5069762;28;20528;-69
2022/01/17 11:38:26;;;;;;;42.30;8.00;;;9.20;99.90;;;;;;5077719;28;20071;-69
2022/01/17 11:40:53;;;;;;;36.33;6.85;;;9.20;99.90;;;;;;5086828;28;20039;-69
2022/01/17 11:43:37;;;;;;;34.67;8.05;;;9.20;99.90;;;;;;5087116;28;20072;-69
2022/01/17 11:46:25;;;;;;;32.40;6.90;;;9.20;99.90;;;;;;5085933;28;20035;-69
2022/01/17 11:49:07;;;;;;;40.50;7.10;;;9.40;99.90;;;;;;5084556;28;20043;-69
2022/01/17 11:51:46;;;;;;;40.75;6.55;;;9.20;99.90;;;;;;5073872;28;20043;-69
2022/01/17 11:54:30;;;;;;;43.33;8.82;;;9.20;99.90;;;;;;5062746;28;20032;-71
2022/01/17 11:57:06;;;;;;;35.83;8.02;;;9.30;99.90;;;;;;5061684;28;20299;-69
2022/01/17 11:59:48;;;;;;;36.83;7.20;;;9.20;99.90;;;;;;5070063;28;20085;-69
2022/01/17 12:02:27;;;;;;;32.38;6.40;;;9.20;99.90;;;;;;5086221;28;20032;-69
2022/01/17 12:05:08;;;;;;;36.60;7.80;;;9.20;99.90;;;;;;5070780;28;20051;-69
2022/01/17 12:07:44;;;;;;;23.67;5.35;;;9.20;99.90;;;;;;5066549;28;20070;-69
2022/01/17 12:10:14;;;;;;;31.92;6.75;;;9.10;99.90;;;;;;5107506;28;20081;-69
2022/01/17 12:12:40;;;;;;;40.97;7.13;;;9.10;99.90;;;;;;5090523;28;20040;-69
2022/01/17 12:15:16;;;;;;;29.75;6.00;;;9.10;99.90;;;;;;5092184;28;20135;-69
2022/01/17 12:17:44;;;;;;;24.75;6.78;;;9.10;99.90;;;;;;5086398;28;20040;-69
2022/01/17 12:20:11;;;;;;;38.20;7.15;;;9.10;99.90;;;;;;5086918;28;20043;-69
2022/01/17 12:22:39;;;;;;;30.20;6.68;;;9.20;99.90;;;;;;5086034;28;20052;-69
2022/01/17 12:25:31;;;;;;;32.40;7.57;;;9.20;99.90;;;;;;5086687;28;20047;-71
2022/01/17 12:28:03;;;;;;;41.15;6.97;;;9.20;99.90;;;;;;5089947;28;20096;-69
2022/01/17 12:30:49;;;;;;;37.17;7.63;;;9.30;99.90;;;;;;5089230;28;20066;-69
2022/01/17 12:33:39;;;;;;;32.40;7.13;;;9.40;99.90;;;;;;5090406;28;20043;-69
2022/01/17 12:36:26;;;;;;;28.50;5.80;;;9.40;99.90;;;;;;5091306;28;20294;-69
2022/01/17 12:39:12;;;;;;;32.63;6.82;;;9.40;99.90;;;;;;5089009;28;20448;-69
2022/01/17 12:41:41;;;;;;;34.92;7.47;;;9.40;99.90;;;;;;5098888;28;20487;-69
2022/01/17 12:44:27;;;;;;;27.58;6.45;;;9.70;99.90;;;;;;5091298;28;20044;-69
2022/01/17 12:46:59;;;;;;;38.63;7.15;;;9.30;99.90;;;;;;5084689;28;20117;-69
2022/01/17 12:49:25;;;;;;;38.88;6.80;;;9.20;99.90;;;;;;5070852;28;20118;-69
2022/01/17 12:51:53;;;;;;;34.17;6.80;;;9.20;99.90;;;;;;5089609;28;20043;-69
2022/01/17 12:54:21;;;;;;;25.42;5.72;;;9.30;99.90;;;;;;5071949;28;20036;-69
2022/01/17 12:56:50;;;;;;;38.92;7.32;;;9.20;99.90;;;;;;5088391;28;20471;-71
2022/01/17 12:59:17;;;;;;;27.23;7.18;;;9.20;99.90;;;;;;5079849;28;20077;-69
2022/01/17 13:01:51;;;;;;;31.63;6.43;;;9.10;99.90;;;;;;5078076;28;20399;-69
2022/01/17 13:04:18;;;;;;;32.88;6.07;;;9.20;99.90;;;;;;5078538;28;20060;-69
2022/01/17 13:06:46;;;;;;;31.35;6.70;;;9.20;99.90;;;;;;5066348;28;20543;-69
2022/01/17 13:09:23;;;;;;;31.17;7.30;;;9.20;99.90;;;;;;5087720;28;20040;-69
2022/01/17 13:11:50;;;;;;;35.20;7.35;;;9.20;99.90;;;;;;5081372;28;20051;-69
2022/01/17 13:14:18;;;;;;;30.67;6.25;;;9.50;99.90;;;;;;5076097;28;20610;-69
2022/01/17 13:16:45;;;;;;;26.23;5.55;;;9.20;99.90;;;;;;5060034;28;20095;-69
2022/01/17 13:19:13;;;;;;;23.45;4.88;;;9.20;99.90;;;;;;5075212;28;20044;-69
2022/01/17 13:21:42;;;;;;;25.35;6.20;;;9.10;99.90;;;;;;5068964;28;20165;-69
2022/01/17 13:24:15;;;;;;;23.00;6.10;;;9.00;99.90;;;;;;5078229;28;20036;-69
2022/01/17 13:26:51;;;;;;;27.33;6.93;;;9.30;99.90;;;;;;5075142;28;20119;-69